MSC Ingrid — HOHA — position and weather

sailwx.info

Track history (hours):
 
Tides and Currents Weather Stations Pressure Air Temp Water Temp Dewpoint Dewpoint Depression Visibility Wind Speed Wind Dir Waves Ship Positions

MSC Ingrid

Last reported at 2018-Jun-23 00:08 UTC. Time now 2018-Jun-23 00:39 UTC.
Position N 36°23' W 001°25'.

Length 294 m; draft 12.5 m.

Type: Ship (hazmat cat A). MMSI: 354505000.

Date/timePositionNaut miles runAvg speedWind from/ knotsBaromVisibWave heightAir tempDewpointWater temp
2018-Jun-23 00:08N 36°23' W 001°25'39318.2
2018-Jun-22 02:35N 36°46' W 009°33'219.9
2018-Jun-22 02:30N 36°48' W 009°33'1020.1
2018-Jun-22 02:00N 36°58' W 009°36'1020.4
2018-Jun-22 01:30N 37°07' W 009°39'1020.6
2018-Jun-22 01:00N 37°17' W 009°44'1020.4
2018-Jun-22 00:30N 37°27' W 009°47'1020.5
2018-Jun-22 00:00N 37°37' W 009°50'1020.4
2018-Jun-21 23:30N 37°47' W 009°52'1020.7
2018-Jun-21 23:00N 37°57' W 009°55'1020.8
2018-Jun-21 22:30N 38°07' W 009°58'1020.7
2018-Jun-21 22:00N 38°17' W 010°01'1020.6
2018-Jun-21 21:30N 38°27' W 010°03'1020.6
2018-Jun-21 21:00N 38°37' W 010°06'1020.5
2018-Jun-21 20:30N 38°48' W 010°07'1020.4
2018-Jun-21 20:00N 38°58' W 010°08'1020.2
2018-Jun-21 19:30N 39°08' W 010°08'1020.1
2018-Jun-21 19:00N 39°18' W 010°07'1020.7
2018-Jun-21 18:30N 39°28' W 010°06'1020.5
2018-Jun-21 18:00N 39°39' W 010°06'1020.3
2018-Jun-21 17:30N 39°49' W 010°07'56019.9
2018-Jun-20 13:17N 48°40' W 005°58'1220.9
2018-Jun-20 12:43N 48°51' W 005°52'719.2
2018-Jun-20 12:21N 48°56' W 005°44'720.2
2018-Jun-20 12:00N 48°59' W 005°34'1219.9
2018-Jun-20 11:23N 49°05' W 005°18'1119.5
2018-Jun-20 10:49N 49°10' W 005°02'719.2
2018-Jun-20 10:27N 49°13' W 004°53'4319.2
2018-Jun-20 08:12N 49°35' W 003°56'419.8
2018-Jun-20 08:00N 49°37' W 003°51'1520.5
2018-Jun-20 07:17N 49°45' W 003°31'621.0
2018-Jun-20 07:00N 49°48' W 003°23'1221.5
2018-Jun-20 06:28N 49°53' W 003°07'1021.6
2018-Jun-20 06:00N 49°58' W 002°54'1121.9
2018-Jun-20 05:30N 50°01' W 002°37'1121.7
2018-Jun-20 05:00N 50°04' W 002°21'1121.3
2018-Jun-20 04:28N 50°07' W 002°04'920.6
2018-Jun-20 04:00N 50°10' W 001°50'1219.7
2018-Jun-20 03:25N 50°13' W 001°32'1118.8
2018-Jun-20 02:48N 50°16' W 001°15'518.2
2018-Jun-20 02:30N 50°17' W 001°07'1017.6
2018-Jun-20 01:56N 50°20' W 000°52'917.2
2018-Jun-20 01:26N 50°23' W 000°39'817.3
2018-Jun-20 00:59N 50°25' W 000°27'917.8
2018-Jun-20 00:29N 50°27' W 000°13'918.4
2018-Jun-20 00:00N 50°30' W 000°00'1118.9
2018-Jun-19 23:24N 50°33' E 000°17'819.7
2018-Jun-19 23:00N 50°35' E 000°29'1019.5
2018-Jun-19 22:30N 50°39' E 000°43'1020.9
2018-Jun-19 22:00N 50°46' E 000°55'1121.0
2018-Jun-19 21:30N 50°53' E 001°08'1020.6
2018-Jun-19 21:00N 50°60' E 001°20'1019.5
2018-Jun-19 20:30N 51°05' E 001°32'1019.1
2018-Jun-19 20:00N 51°12' E 001°44'816.8
2018-Jun-19 19:30N 51°18' E 001°52'612.4
2018-Jun-19 19:01N 51°24' E 001°58'816.7
2018-Jun-19 18:31N 51°22' E 002°11'816.9
2018-Jun-19 18:00N 51°22' E 002°24'916.8
2018-Jun-19 17:27N 51°23' E 002°39'510.1
2018-Jun-19 17:01N 51°22' E 002°46'714.6
2018-Jun-19 16:30N 51°23' E 002°58'816.8
2018-Jun-19 16:00N 51°24' E 003°11'917.4
2018-Jun-19 15:30N 51°25' E 003°25'713.2
2018-Jun-19 15:00N 51°26' E 003°35'5 9.7
2018-Jun-19 14:30N 51°24' E 003°43'612.9
2018-Jun-19 14:00N 51°21' E 003°51'714.1
2018-Jun-19 13:30N 51°26' E 003°59'612.5
2018-Jun-19 13:00N 51°22' E 004°07'510.7
2018-Jun-19 12:30N 51°21' E 004°15'3 6.7
2018-Jun-19 12:00N 51°18' E 004°16'0 0.2
2018-Jun-19 11:28N 51°18' E 004°16'0 0.0
2018-Jun-19 10:58N 51°18' E 004°16'0 0.0
2018-Jun-19 10:28N 51°18' E 004°16'0 0.0
2018-Jun-19 09:58N 51°18' E 004°16'0 0.0
2018-Jun-19 09:28N 51°18' E 004°16'0 0.0
2018-Jun-19 08:58N 51°18' E 004°16'0 0.0
2018-Jun-19 08:28N 51°18' E 004°16'0 0.1
2018-Jun-19 07:58N 51°18' E 004°16'0 0.0
2018-Jun-19 07:28N 51°18' E 004°16'0 0.0
2018-Jun-19 06:58N 51°18' E 004°16'0 0.0
2018-Jun-19 06:28N 51°18' E 004°16'0 0.0
2018-Jun-19 05:55N 51°18' E 004°16'0 0.0
2018-Jun-19 05:28N 51°18' E 004°16'0 0.0
2018-Jun-19 04:58N 51°18' E 004°16'0 0.0
2018-Jun-19 04:28N 51°18' E 004°16'0 0.0
2018-Jun-19 03:58N 51°18' E 004°16'0 0.1
2018-Jun-19 03:28N 51°18' E 004°16'0 0.0
2018-Jun-19 02:58N 51°18' E 004°16'0 0.0
2018-Jun-19 02:28N 51°18' E 004°16'0 0.0
2018-Jun-19 01:58N 51°18' E 004°16'0 0.0
2018-Jun-19 01:28N 51°18' E 004°16'0 0.0
2018-Jun-19 00:58N 51°18' E 004°16'0 0.0
2018-Jun-19 00:28N 51°18' E 004°16'0 0.0
2018-Jun-18 23:58N 51°18' E 004°16'0 0.0
2018-Jun-18 23:28N 51°18' E 004°16'0 0.0
2018-Jun-18 22:58N 51°18' E 004°16'0 0.1
2018-Jun-18 22:28N 51°18' E 004°16'0 0.0
2018-Jun-18 21:58N 51°18' E 004°16'0 0.0
2018-Jun-18 21:28N 51°18' E 004°16'0 0.0
2018-Jun-18 21:01N 51°18' E 004°16'0 0.0
2018-Jun-18 20:31N 51°18' E 004°16'0 0.0
2018-Jun-18 20:01N 51°18' E 004°16'0 0.0
2018-Jun-18 19:30N 51°18' E 004°16'0 0.0
2018-Jun-18 19:00N 51°18' E 004°16'0 0.0
2018-Jun-18 18:30N 51°18' E 004°16'0 0.0
2018-Jun-18 18:00N 51°18' E 004°16'0 0.0
2018-Jun-18 17:30N 51°18' E 004°16'0 0.0
2018-Jun-18 17:00N 51°18' E 004°16'0 0.0
2018-Jun-18 16:30N 51°18' E 004°16'0 0.0
2018-Jun-18 15:57N 51°18' E 004°16'0 0.0
2018-Jun-18 15:30N 51°18' E 004°16'0 0.0
2018-Jun-18 15:00N 51°18' E 004°16'0 0.0
2018-Jun-18 14:30N 51°18' E 004°16'0 0.0
2018-Jun-18 14:00N 51°18' E 004°16'0 0.2
2018-Jun-18 13:30N 51°18' E 004°16'0 0.2
2018-Jun-18 13:00N 51°18' E 004°16'0 0.0
2018-Jun-18 12:30N 51°18' E 004°16'0 0.0
2018-Jun-18 12:00N 51°18' E 004°16'0 0.0
2018-Jun-18 11:24N 51°18' E 004°16'0 0.0
2018-Jun-18 11:00N 51°18' E 004°16'0 0.0
2018-Jun-18 10:27N 51°18' E 004°16'0 0.1
2018-Jun-18 10:00N 51°18' E 004°16'0 0.0
2018-Jun-18 09:30N 51°18' E 004°16'0 0.0
2018-Jun-18 09:00N 51°18' E 004°16'0 0.0
2018-Jun-18 08:30N 51°18' E 004°16'0 0.0
2018-Jun-18 08:00N 51°18' E 004°16'0 0.0
2018-Jun-18 07:30N 51°18' E 004°16'0 0.0
2018-Jun-18 07:00N 51°18' E 004°16'0 0.0
2018-Jun-18 06:30N 51°18' E 004°16'0 0.0
2018-Jun-18 06:00N 51°18' E 004°16'0 0.0
2018-Jun-18 05:30N 51°18' E 004°16'0 0.0
2018-Jun-18 05:00N 51°18' E 004°16'0 0.0
2018-Jun-18 04:30N 51°18' E 004°16'0 0.0
2018-Jun-18 04:00N 51°18' E 004°16'0 0.0
2018-Jun-18 03:30N 51°18' E 004°16'0 0.3
2018-Jun-18 03:00N 51°18' E 004°16'1 2.5
2018-Jun-18 02:30N 51°19' E 004°16'3 6.6
2018-Jun-18 02:00N 51°22' E 004°13'4 7.3
2018-Jun-18 01:31N 51°22' E 004°07'612.2
2018-Jun-18 01:01N 51°26' E 004°00'714.4
2018-Jun-18 00:30N 51°21' E 003°52'613.0
2018-Jun-18 00:00N 51°23' E 003°43'5 9.6
2018-Jun-17 23:30N 51°26' E 003°36'4 8.4
2018-Jun-17 23:00N 51°25' E 003°29'612.3
2018-Jun-17 22:30N 51°24' E 003°19'612.2
2018-Jun-17 22:00N 51°24' E 003°09'612.7
2018-Jun-17 21:31N 51°25' E 002°60'714.4
2018-Jun-17 21:00N 51°31' E 003°05'816.7
2018-Jun-17 20:31N 51°39' E 003°11'612.7
2018-Jun-17 20:00N 51°45' E 003°14'612.7
2018-Jun-17 19:30N 51°50' E 003°20'2 2.6
2018-Jun-17 18:55N 51°50' E 003°23'0 0.0
2018-Jun-17 18:28N 51°50' E 003°22'0 0.0
2018-Jun-17 17:43N 51°50' E 003°23'0 0.0
2018-Jun-17 17:22N 51°50' E 003°23'0 0.0
2018-Jun-17 16:58N 51°50' E 003°23'0 0.0
2018-Jun-17 16:07N 51°50' E 003°23'0 0.0
2018-Jun-17 15:19N 51°50' E 003°23'0 0.0
2018-Jun-17 14:22N 51°50' E 003°23'0 0.3
2018-Jun-17 13:19N 51°50' E 003°22'0 0.1
2018-Jun-17 12:52N 51°50' E 003°22'0 0.0
2018-Jun-17 11:37N 51°50' E 003°22'0 0.0
2018-Jun-17 11:25N 51°50' E 003°22'0 0.0
2018-Jun-17 10:55N 51°50' E 003°22'0 0.1
2018-Jun-17 08:24N 51°50' E 003°22'3 8.2
2018-Jun-17 07:59N 51°53' E 003°19'611.7
2018-Jun-17 07:30N 51°59' E 003°21'712.1
2018-Jun-17 06:58N 52°03' E 003°29'714.3
2018-Jun-17 06:30N 52°04' E 003°40'714.1
2018-Jun-17 06:00N 52°04' E 003°51'5 9.4
2018-Jun-17 05:31N 52°02' E 003°58'6 5.4
2018-Jun-17 04:28N 51°58' E 004°04'0 0.0
2018-Jun-17 03:58N 51°58' E 004°04'0 0.0
2018-Jun-17 03:28N 51°58' E 004°04'0 0.0
2018-Jun-17 02:58N 51°58' E 004°04'0 0.0
2018-Jun-17 02:28N 51°58' E 004°04'0 0.0
2018-Jun-17 01:58N 51°58' E 004°04'0 0.0
2018-Jun-17 01:28N 51°58' E 004°04'0 0.0
2018-Jun-17 00:58N 51°58' E 004°04'0 0.0
2018-Jun-17 00:28N 51°58' E 004°04'0 0.0
2018-Jun-16 23:58N 51°58' E 004°04'0 0.0
2018-Jun-16 23:31N 51°58' E 004°04'0 0.1
2018-Jun-16 22:58N 51°58' E 004°04'0 0.1
2018-Jun-16 22:31N 51°58' E 004°04'0 0.0
2018-Jun-16 22:00N 51°58' E 004°04'0 0.0
2018-Jun-16 21:30N 51°58' E 004°04'0 0.0
2018-Jun-16 21:00N 51°58' E 004°04'0 0.0
2018-Jun-16 20:30N 51°58' E 004°04'0 0.0
2018-Jun-16 20:00N 51°58' E 004°04'0 0.0
2018-Jun-16 19:30N 51°58' E 004°04'0 0.0
2018-Jun-16 19:00N 51°58' E 004°04'0 0.0
2018-Jun-16 18:30N 51°58' E 004°04'0 0.0
2018-Jun-16 18:00N 51°58' E 004°04'0 0.0
2018-Jun-16 17:30N 51°58' E 004°04'0 0.0
2018-Jun-16 17:00N 51°58' E 004°04'0 0.0
2018-Jun-16 16:30N 51°58' E 004°04'0 0.0
2018-Jun-16 16:00N 51°58' E 004°04'0 0.0
2018-Jun-16 15:30N 51°58' E 004°04'0 0.0
2018-Jun-16 15:00N 51°58' E 004°04'0 0.0
2018-Jun-16 14:30N 51°58' E 004°04'0 0.1
2018-Jun-16 14:00N 51°58' E 004°04'0 0.1
2018-Jun-16 13:30N 51°58' E 004°04'0 0.0
2018-Jun-16 13:00N 51°58' E 004°04'0 0.0
2018-Jun-16 12:30N 51°58' E 004°04'0 0.0
2018-Jun-16 12:00N 51°58' E 004°04'0 0.7
2018-Jun-16 11:30N 51°58' E 004°05'2 4.3
2018-Jun-16 11:00N 51°59' E 004°02'4 7.7
2018-Jun-16 10:30N 51°60' E 003°56'4 7.6
2018-Jun-16 10:00N 52°00' E 003°50'4 8.9
2018-Jun-16 09:30N 51°58' E 003°43'5 9.6
2018-Jun-16 09:00N 51°57' E 003°36'4 7.7
2018-Jun-16 08:30N 51°54' E 003°32'0 0.7
2018-Jun-16 07:49N 51°54' E 003°31'0 0.0
2018-Jun-16 07:19N 51°54' E 003°31'0 0.0
2018-Jun-16 06:55N 51°54' E 003°31'0 0.0
2018-Jun-16 06:28N 51°54' E 003°31'0 0.1
2018-Jun-16 05:55N 51°54' E 003°31'0 0.0
2018-Jun-16 05:25N 51°54' E 003°31'0 0.0
2018-Jun-16 04:55N 51°54' E 003°31'0 0.0
2018-Jun-16 04:28N 51°54' E 003°31'0 0.0
2018-Jun-16 03:58N 51°54' E 003°31'0 0.0
2018-Jun-16 03:25N 51°54' E 003°31'0 0.0
2018-Jun-16 02:55N 51°54' E 003°31'0 0.0
2018-Jun-16 02:28N 51°54' E 003°31'0 0.0
2018-Jun-16 01:55N 51°54' E 003°31'0 0.1
2018-Jun-16 01:25N 51°54' E 003°31'0 0.6
2018-Jun-16 00:58N 51°54' E 003°31'0 0.1
2018-Jun-16 00:28N 51°54' E 003°31'0 0.1
2018-Jun-15 23:58N 51°54' E 003°31'0 0.0
2018-Jun-15 23:28N 51°54' E 003°31'0 0.0
2018-Jun-15 22:55N 51°54' E 003°31'0 0.0
2018-Jun-15 22:28N 51°54' E 003°31'0 0.0
2018-Jun-15 21:58N 51°54' E 003°31'0 0.0
2018-Jun-15 21:28N 51°54' E 003°31'0 0.0
2018-Jun-15 20:58N 51°54' E 003°31'0 0.1
2018-Jun-15 20:28N 51°54' E 003°31'0 0.1
2018-Jun-15 19:58N 51°54' E 003°31'0 0.0
2018-Jun-15 19:28N 51°54' E 003°31'0 0.1
2018-Jun-15 18:58N 51°54' E 003°31'0 0.2
2018-Jun-15 18:25N 51°54' E 003°31'0 0.1
2018-Jun-15 17:58N 51°54' E 003°31'0 0.1
2018-Jun-15 17:28N 51°54' E 003°31'0 0.1
2018-Jun-15 16:58N 51°54' E 003°31'0 0.0
2018-Jun-15 16:28N 51°54' E 003°31'0 0.0
2018-Jun-15 15:58N 51°54' E 003°31'0 0.0
2018-Jun-15 15:28N 51°54' E 003°31'0 0.0
2018-Jun-15 14:58N 51°54' E 003°31'0 0.0
2018-Jun-15 14:25N 51°54' E 003°31'0 0.0
2018-Jun-15 13:55N 51°54' E 003°31'0 0.1
2018-Jun-15 13:22N 51°54' E 003°31'0 0.2
2018-Jun-15 12:58N 51°54' E 003°31'0 0.3
2018-Jun-15 12:25N 51°54' E 003°31'0 0.1
2018-Jun-15 11:58N 51°54' E 003°31'0 0.1
2018-Jun-15 11:31N 51°54' E 003°31'0 0.0
2018-Jun-15 11:00N 51°54' E 003°31'0 0.0
2018-Jun-15 10:21N 51°54' E 003°31'0 0.0
2018-Jun-15 10:00N 51°54' E 003°31'0 0.0
2018-Jun-15 09:03N 51°54' E 003°31'0 0.1
2018-Jun-15 09:00N 51°54' E 003°31'0 0.0
2018-Jun-15 08:24N 51°54' E 003°31'0 0.0
2018-Jun-15 08:00N 51°54' E 003°31'0 0.0
2018-Jun-15 07:27N 51°54' E 003°31'0 0.3
2018-Jun-15 06:51N 51°54' E 003°31'0 0.1
2018-Jun-15 05:51N 51°54' E 003°31'0 0.1
2018-Jun-15 05:24N 51°54' E 003°31'0 0.0
2018-Jun-15 04:57N 51°54' E 003°31'0 0.0
2018-Jun-15 04:24N 51°54' E 003°31'0 0.1
2018-Jun-15 03:51N 51°54' E 003°31'0 0.0
2018-Jun-15 03:27N 51°54' E 003°31'0 0.0
2018-Jun-15 03:00N 51°54' E 003°31'0 0.0
2018-Jun-15 02:30N 51°54' E 003°31'0 0.1
2018-Jun-15 01:57N 51°54' E 003°31'0 0.0
2018-Jun-15 01:27N 51°54' E 003°31'0 0.1
2018-Jun-15 00:21N 51°54' E 003°31'0 0.3
2018-Jun-15 00:00N 51°54' E 003°31'0 0.2
2018-Jun-14 23:21N 51°54' E 003°31'0 0.1
2018-Jun-14 22:57N 51°54' E 003°31'0 0.0
2018-Jun-14 22:30N 51°54' E 003°31'0 0.0
2018-Jun-14 22:00N 51°54' E 003°31'0 0.0
2018-Jun-14 21:15N 51°54' E 003°31'0 0.0
2018-Jun-14 21:00N 51°54' E 003°31'0 0.0
2018-Jun-14 20:27N 51°54' E 003°31'0 0.3
2018-Jun-14 19:54N 51°54' E 003°31'0 0.4
2018-Jun-14 19:30N 51°54' E 003°31'0 0.2
2018-Jun-14 18:42N 51°54' E 003°31'0 0.6
2018-Jun-14 18:30N 51°54' E 003°31'2 3.8
2018-Jun-14 18:00N 51°55' E 003°29'713.4
2018-Jun-14 17:30N 51°54' E 003°18'815.1
2018-Jun-14 17:00N 51°53' E 003°06'815.2
2018-Jun-14 16:30N 51°51' E 002°54'814.6
2018-Jun-14 15:56N 51°51' E 002°41'913.8
2018-Jun-14 15:18N 51°55' E 002°27'815.5
2018-Jun-14 14:48N 51°54' E 002°15'516.2
2018-Jun-14 14:30N 51°53' E 002°08'917.8
2018-Jun-14 14:00N 51°49' E 001°55'713.9
2018-Jun-14 13:30N 51°50' E 001°44'510.9
2018-Jun-14 13:00N 51°51' E 001°35'1019.8
2018-Jun-14 12:31N 51°42' E 001°27'1122.2
2018-Jun-14 12:01N 51°35' E 001°14'1019.9
2018-Jun-14 11:31N 51°30' E 001°00'918.3
2018-Jun-14 11:01N 51°29' E 000°46'815.7
2018-Jun-14 10:30N 51°30' E 000°33'2 3.8
2018-Jun-14 10:01N 51°30' E 000°30'0 0.0
2018-Jun-14 09:30N 51°30' E 000°30'0 0.0
2018-Jun-14 09:01N 51°30' E 000°30'0 0.0
2018-Jun-14 08:30N 51°30' E 000°30'0 0.0
2018-Jun-14 08:00N 51°30' E 000°30'0 0.0
2018-Jun-14 07:31N 51°30' E 000°30'0 0.0
2018-Jun-14 07:01N 51°30' E 000°30'0 0.0
2018-Jun-14 06:31N 51°30' E 000°30'0 0.0
2018-Jun-14 06:00N 51°30' E 000°30'0 0.1
2018-Jun-14 05:30N 51°30' E 000°30'0 0.0
2018-Jun-14 05:01N 51°30' E 000°30'0 0.0
2018-Jun-14 04:31N 51°30' E 000°30'0 0.0
2018-Jun-14 04:00N 51°30' E 000°30'0 0.0
2018-Jun-14 03:31N 51°30' E 000°30'0 0.1
2018-Jun-14 03:01N 51°30' E 000°30'0 0.1
2018-Jun-14 02:31N 51°30' E 000°30'0 0.2
2018-Jun-14 02:01N 51°30' E 000°30'0 0.0
2018-Jun-14 01:30N 51°30' E 000°30'0 0.0
2018-Jun-14 01:00N 51°30' E 000°30'0 0.1
2018-Jun-14 00:30N 51°30' E 000°30'0 0.0
2018-Jun-14 00:01N 51°30' E 000°30'0 0.0
2018-Jun-13 23:31N 51°30' E 000°30'0 0.0
2018-Jun-13 23:01N 51°30' E 000°30'0 0.0
2018-Jun-13 22:31N 51°30' E 000°30'0 0.1
2018-Jun-13 22:00N 51°30' E 000°30'2 4.2
2018-Jun-13 21:31N 51°30' E 000°33'713.6
2018-Jun-13 21:00N 51°30' E 000°44'816.6
2018-Jun-13 20:31N 51°29' E 000°58'917.0
2018-Jun-13 20:00N 51°33' E 001°10'816.8
2018-Jun-13 19:30N 51°38' E 001°21'917.4
2018-Jun-13 19:00N 51°45' E 001°30'815.7
2018-Jun-13 18:31N 51°51' E 001°37'3 6.2
2018-Jun-13 18:00N 51°51' E 001°42'3 5.7
2018-Jun-13 17:30N 51°51' E 001°46'3 6.7
2018-Jun-13 17:00N 51°49' E 001°51'1 1.8
2018-Jun-13 16:30N 51°48' E 001°50'1 2.1
2018-Jun-13 16:00N 51°47' E 001°50'1 2.2
2018-Jun-13 15:30N 51°46' E 001°49'1 2.7
2018-Jun-13 15:00N 51°44' E 001°50'3 5.5
2018-Jun-13 14:30N 51°42' E 001°49'4 8.2
2018-Jun-13 14:00N 51°38' E 001°50'4 8.1
2018-Jun-13 13:30N 51°34' E 001°52'4 7.6
2018-Jun-13 13:00N 51°30' E 001°55'511.0
2018-Jun-13 12:30N 51°26' E 002°01'714.0
2018-Jun-13 12:01N 51°22' E 002°09'5 9.3
2018-Jun-13 11:30N 51°17' E 002°07'510.4
2018-Jun-13 11:00N 51°13' E 002°02'510.1
2018-Jun-13 10:31N 51°10' E 001°55'510.6
2018-Jun-13 10:00N 51°07' E 001°48'510.4
2018-Jun-13 09:31N 51°03' E 001°43'5 9.5
2018-Jun-13 09:00N 50°60' E 001°38'713.0
2018-Jun-13 08:30N 50°55' E 001°30'713.5
2018-Jun-13 08:00N 50°49' E 001°26'813.1
2018-Jun-13 07:24N 50°42' E 001°21'613.7
2018-Jun-13 07:00N 50°38' E 001°14'1313.6
2018-Jun-13 06:02N 50°30' E 000°58'013.0
2018-Jun-13 06:00N 50°30' E 000°58'713.3
2018-Jun-13 05:28N 50°27' E 000°47'1713.1
2018-Jun-13 04:09N 50°23' E 000°21'414.2
2018-Jun-13 03:53N 50°22' E 000°15'1613.2
2018-Jun-13 02:39N 50°19' W 000°09'212.6
2018-Jun-13 02:30N 50°18' W 000°12'712.3
2018-Jun-13 01:58N 50°17' W 000°23'612.0
2018-Jun-13 01:30N 50°16' W 000°31'811.8
2018-Jun-13 00:51N 50°14' W 000°43'511.7
2018-Jun-13 00:28N 50°13' W 000°50'  
Track history (hours):
 
Tides and Currents Weather Stations Pressure Air Temp Water Temp Dewpoint Dewpoint Depression Visibility Wind Speed Wind Dir Waves Ship Positions

MSC Ingrid

Last reported at 2018-Jun-23 00:08 UTC. Time now 2018-Jun-23 00:39 UTC.
Position N 36°23' W 001°25'.

Length 294 m; draft 12.5 m.

Type: Ship (hazmat cat A). MMSI: 354505000.

Date/timePositionNaut miles runAvg speedWind from/ knotsBaromVisibWave heightAir tempDewpointWater temp
2018-Jun-23 00:08N 36°23' W 001°25'39318.2
2018-Jun-22 02:35N 36°46' W 009°33'219.9
2018-Jun-22 02:30N 36°48' W 009°33'1020.1
2018-Jun-22 02:00N 36°58' W 009°36'1020.4
2018-Jun-22 01:30N 37°07' W 009°39'1020.6
2018-Jun-22 01:00N 37°17' W 009°44'1020.4
2018-Jun-22 00:30N 37°27' W 009°47'1020.5
2018-Jun-22 00:00N 37°37' W 009°50'1020.4
2018-Jun-21 23:30N 37°47' W 009°52'1020.7
2018-Jun-21 23:00N 37°57' W 009°55'1020.8
2018-Jun-21 22:30N 38°07' W 009°58'1020.7
2018-Jun-21 22:00N 38°17' W 010°01'1020.6
2018-Jun-21 21:30N 38°27' W 010°03'1020.6
2018-Jun-21 21:00N 38°37' W 010°06'1020.5
2018-Jun-21 20:30N 38°48' W 010°07'1020.4
2018-Jun-21 20:00N 38°58' W 010°08'1020.2
2018-Jun-21 19:30N 39°08' W 010°08'1020.1
2018-Jun-21 19:00N 39°18' W 010°07'1020.7
2018-Jun-21 18:30N 39°28' W 010°06'1020.5
2018-Jun-21 18:00N 39°39' W 010°06'1020.3
2018-Jun-21 17:30N 39°49' W 010°07'56019.9
2018-Jun-20 13:17N 48°40' W 005°58'1220.9
2018-Jun-20 12:43N 48°51' W 005°52'719.2
2018-Jun-20 12:21N 48°56' W 005°44'720.2
2018-Jun-20 12:00N 48°59' W 005°34'1219.9
2018-Jun-20 11:23N 49°05' W 005°18'1119.5
2018-Jun-20 10:49N 49°10' W 005°02'719.2
2018-Jun-20 10:27N 49°13' W 004°53'4319.2
2018-Jun-20 08:12N 49°35' W 003°56'419.8
2018-Jun-20 08:00N 49°37' W 003°51'1520.5
2018-Jun-20 07:17N 49°45' W 003°31'621.0
2018-Jun-20 07:00N 49°48' W 003°23'1221.5
2018-Jun-20 06:28N 49°53' W 003°07'1021.6
2018-Jun-20 06:00N 49°58' W 002°54'1121.9
2018-Jun-20 05:30N 50°01' W 002°37'1121.7
2018-Jun-20 05:00N 50°04' W 002°21'1121.3
2018-Jun-20 04:28N 50°07' W 002°04'920.6
2018-Jun-20 04:00N 50°10' W 001°50'1219.7
2018-Jun-20 03:25N 50°13' W 001°32'1118.8
2018-Jun-20 02:48N 50°16' W 001°15'518.2
2018-Jun-20 02:30N 50°17' W 001°07'1017.6
2018-Jun-20 01:56N 50°20' W 000°52'917.2
2018-Jun-20 01:26N 50°23' W 000°39'817.3
2018-Jun-20 00:59N 50°25' W 000°27'917.8
2018-Jun-20 00:29N 50°27' W 000°13'918.4
2018-Jun-20 00:00N 50°30' W 000°00'1118.9
2018-Jun-19 23:24N 50°33' E 000°17'819.7
2018-Jun-19 23:00N 50°35' E 000°29'1019.5
2018-Jun-19 22:30N 50°39' E 000°43'1020.9
2018-Jun-19 22:00N 50°46' E 000°55'1121.0
2018-Jun-19 21:30N 50°53' E 001°08'1020.6
2018-Jun-19 21:00N 50°60' E 001°20'1019.5
2018-Jun-19 20:30N 51°05' E 001°32'1019.1
2018-Jun-19 20:00N 51°12' E 001°44'816.8
2018-Jun-19 19:30N 51°18' E 001°52'612.4
2018-Jun-19 19:01N 51°24' E 001°58'816.7
2018-Jun-19 18:31N 51°22' E 002°11'816.9
2018-Jun-19 18:00N 51°22' E 002°24'916.8
2018-Jun-19 17:27N 51°23' E 002°39'510.1
2018-Jun-19 17:01N 51°22' E 002°46'714.6
2018-Jun-19 16:30N 51°23' E 002°58'816.8
2018-Jun-19 16:00N 51°24' E 003°11'917.4
2018-Jun-19 15:30N 51°25' E 003°25'713.2
2018-Jun-19 15:00N 51°26' E 003°35'5 9.7
2018-Jun-19 14:30N 51°24' E 003°43'612.9
2018-Jun-19 14:00N 51°21' E 003°51'714.1
2018-Jun-19 13:30N 51°26' E 003°59'612.5
2018-Jun-19 13:00N 51°22' E 004°07'510.7
2018-Jun-19 12:30N 51°21' E 004°15'3 6.7
2018-Jun-19 12:00N 51°18' E 004°16'0 0.2
2018-Jun-19 11:28N 51°18' E 004°16'0 0.0
2018-Jun-19 10:58N 51°18' E 004°16'0 0.0
2018-Jun-19 10:28N 51°18' E 004°16'0 0.0
2018-Jun-19 09:58N 51°18' E 004°16'0 0.0
2018-Jun-19 09:28N 51°18' E 004°16'0 0.0
2018-Jun-19 08:58N 51°18' E 004°16'0 0.0
2018-Jun-19 08:28N 51°18' E 004°16'0 0.1
2018-Jun-19 07:58N 51°18' E 004°16'0 0.0
2018-Jun-19 07:28N 51°18' E 004°16'0 0.0
2018-Jun-19 06:58N 51°18' E 004°16'0 0.0
2018-Jun-19 06:28N 51°18' E 004°16'0 0.0
2018-Jun-19 05:55N 51°18' E 004°16'0 0.0
2018-Jun-19 05:28N 51°18' E 004°16'0 0.0
2018-Jun-19 04:58N 51°18' E 004°16'0 0.0
2018-Jun-19 04:28N 51°18' E 004°16'0 0.0
2018-Jun-19 03:58N 51°18' E 004°16'0 0.1
2018-Jun-19 03:28N 51°18' E 004°16'0 0.0
2018-Jun-19 02:58N 51°18' E 004°16'0 0.0
2018-Jun-19 02:28N 51°18' E 004°16'0 0.0
2018-Jun-19 01:58N 51°18' E 004°16'0 0.0
2018-Jun-19 01:28N 51°18' E 004°16'0 0.0
2018-Jun-19 00:58N 51°18' E 004°16'0 0.0
2018-Jun-19 00:28N 51°18' E 004°16'0 0.0
2018-Jun-18 23:58N 51°18' E 004°16'0 0.0
2018-Jun-18 23:28N 51°18' E 004°16'0 0.0
2018-Jun-18 22:58N 51°18' E 004°16'0 0.1
2018-Jun-18 22:28N 51°18' E 004°16'0 0.0
2018-Jun-18 21:58N 51°18' E 004°16'0 0.0
2018-Jun-18 21:28N 51°18' E 004°16'0 0.0
2018-Jun-18 21:01N 51°18' E 004°16'0 0.0
2018-Jun-18 20:31N 51°18' E 004°16'0 0.0
2018-Jun-18 20:01N 51°18' E 004°16'0 0.0
2018-Jun-18 19:30N 51°18' E 004°16'0 0.0
2018-Jun-18 19:00N 51°18' E 004°16'0 0.0
2018-Jun-18 18:30N 51°18' E 004°16'0 0.0
2018-Jun-18 18:00N 51°18' E 004°16'0 0.0
2018-Jun-18 17:30N 51°18' E 004°16'0 0.0
2018-Jun-18 17:00N 51°18' E 004°16'0 0.0
2018-Jun-18 16:30N 51°18' E 004°16'0 0.0
2018-Jun-18 15:57N 51°18' E 004°16'0 0.0
2018-Jun-18 15:30N 51°18' E 004°16'0 0.0
2018-Jun-18 15:00N 51°18' E 004°16'0 0.0
2018-Jun-18 14:30N 51°18' E 004°16'0 0.0
2018-Jun-18 14:00N 51°18' E 004°16'0 0.2
2018-Jun-18 13:30N 51°18' E 004°16'0 0.2
2018-Jun-18 13:00N 51°18' E 004°16'0 0.0
2018-Jun-18 12:30N 51°18' E 004°16'0 0.0
2018-Jun-18 12:00N 51°18' E 004°16'0 0.0
2018-Jun-18 11:24N 51°18' E 004°16'0 0.0
2018-Jun-18 11:00N 51°18' E 004°16'0 0.0
2018-Jun-18 10:27N 51°18' E 004°16'0 0.1
2018-Jun-18 10:00N 51°18' E 004°16'0 0.0
2018-Jun-18 09:30N 51°18' E 004°16'0 0.0
2018-Jun-18 09:00N 51°18' E 004°16'0 0.0
2018-Jun-18 08:30N 51°18' E 004°16'0 0.0
2018-Jun-18 08:00N 51°18' E 004°16'0 0.0
2018-Jun-18 07:30N 51°18' E 004°16'0 0.0
2018-Jun-18 07:00N 51°18' E 004°16'0 0.0
2018-Jun-18 06:30N 51°18' E 004°16'0 0.0
2018-Jun-18 06:00N 51°18' E 004°16'0 0.0
2018-Jun-18 05:30N 51°18' E 004°16'0 0.0
2018-Jun-18 05:00N 51°18' E 004°16'0 0.0
2018-Jun-18 04:30N 51°18' E 004°16'0 0.0
2018-Jun-18 04:00N 51°18' E 004°16'0 0.0
2018-Jun-18 03:30N 51°18' E 004°16'0 0.3
2018-Jun-18 03:00N 51°18' E 004°16'1 2.5
2018-Jun-18 02:30N 51°19' E 004°16'3 6.6
2018-Jun-18 02:00N 51°22' E 004°13'4 7.3
2018-Jun-18 01:31N 51°22' E 004°07'612.2
2018-Jun-18 01:01N 51°26' E 004°00'714.4
2018-Jun-18 00:30N 51°21' E 003°52'613.0
2018-Jun-18 00:00N 51°23' E 003°43'5 9.6
2018-Jun-17 23:30N 51°26' E 003°36'4 8.4
2018-Jun-17 23:00N 51°25' E 003°29'612.3
2018-Jun-17 22:30N 51°24' E 003°19'612.2
2018-Jun-17 22:00N 51°24' E 003°09'612.7
2018-Jun-17 21:31N 51°25' E 002°60'714.4
2018-Jun-17 21:00N 51°31' E 003°05'816.7
2018-Jun-17 20:31N 51°39' E 003°11'612.7
2018-Jun-17 20:00N 51°45' E 003°14'612.7
2018-Jun-17 19:30N 51°50' E 003°20'2 2.6
2018-Jun-17 18:55N 51°50' E 003°23'0 0.0
2018-Jun-17 18:28N 51°50' E 003°22'0 0.0
2018-Jun-17 17:43N 51°50' E 003°23'0 0.0
2018-Jun-17 17:22N 51°50' E 003°23'0 0.0
2018-Jun-17 16:58N 51°50' E 003°23'0 0.0
2018-Jun-17 16:07N 51°50' E 003°23'0 0.0
2018-Jun-17 15:19N 51°50' E 003°23'0 0.0
2018-Jun-17 14:22N 51°50' E 003°23'0 0.3
2018-Jun-17 13:19N 51°50' E 003°22'0 0.1
2018-Jun-17 12:52N 51°50' E 003°22'0 0.0
2018-Jun-17 11:37N 51°50' E 003°22'0 0.0
2018-Jun-17 11:25N 51°50' E 003°22'0 0.0
2018-Jun-17 10:55N 51°50' E 003°22'0 0.1
2018-Jun-17 08:24N 51°50' E 003°22'3 8.2
2018-Jun-17 07:59N 51°53' E 003°19'611.7
2018-Jun-17 07:30N 51°59' E 003°21'712.1
2018-Jun-17 06:58N 52°03' E 003°29'714.3
2018-Jun-17 06:30N 52°04' E 003°40'714.1
2018-Jun-17 06:00N 52°04' E 003°51'5 9.4
2018-Jun-17 05:31N 52°02' E 003°58'6 5.4
2018-Jun-17 04:28N 51°58' E 004°04'0 0.0
2018-Jun-17 03:58N 51°58' E 004°04'0 0.0
2018-Jun-17 03:28N 51°58' E 004°04'0 0.0
2018-Jun-17 02:58N 51°58' E 004°04'0 0.0
2018-Jun-17 02:28N 51°58' E 004°04'0 0.0
2018-Jun-17 01:58N 51°58' E 004°04'0 0.0
2018-Jun-17 01:28N 51°58' E 004°04'0 0.0
2018-Jun-17 00:58N 51°58' E 004°04'0 0.0
2018-Jun-17 00:28N 51°58' E 004°04'0 0.0
2018-Jun-16 23:58N 51°58' E 004°04'0 0.0
2018-Jun-16 23:31N 51°58' E 004°04'0 0.1
2018-Jun-16 22:58N 51°58' E 004°04'0 0.1
2018-Jun-16 22:31N 51°58' E 004°04'0 0.0
2018-Jun-16 22:00N 51°58' E 004°04'0 0.0
2018-Jun-16 21:30N 51°58' E 004°04'0 0.0
2018-Jun-16 21:00N 51°58' E 004°04'0 0.0
2018-Jun-16 20:30N 51°58' E 004°04'0 0.0
2018-Jun-16 20:00N 51°58' E 004°04'0 0.0
2018-Jun-16 19:30N 51°58' E 004°04'0 0.0
2018-Jun-16 19:00N 51°58' E 004°04'0 0.0
2018-Jun-16 18:30N 51°58' E 004°04'0 0.0
2018-Jun-16 18:00N 51°58' E 004°04'0 0.0
2018-Jun-16 17:30N 51°58' E 004°04'0 0.0
2018-Jun-16 17:00N 51°58' E 004°04'0 0.0
2018-Jun-16 16:30N 51°58' E 004°04'0 0.0
2018-Jun-16 16:00N 51°58' E 004°04'0 0.0
2018-Jun-16 15:30N 51°58' E 004°04'0 0.0
2018-Jun-16 15:00N 51°58' E 004°04'0 0.0
2018-Jun-16 14:30N 51°58' E 004°04'0 0.1
2018-Jun-16 14:00N 51°58' E 004°04'0 0.1
2018-Jun-16 13:30N 51°58' E 004°04'0 0.0
2018-Jun-16 13:00N 51°58' E 004°04'0 0.0
2018-Jun-16 12:30N 51°58' E 004°04'0 0.0
2018-Jun-16 12:00N 51°58' E 004°04'0 0.7
2018-Jun-16 11:30N 51°58' E 004°05'2 4.3
2018-Jun-16 11:00N 51°59' E 004°02'4 7.7
2018-Jun-16 10:30N 51°60' E 003°56'4 7.6
2018-Jun-16 10:00N 52°00' E 003°50'4 8.9
2018-Jun-16 09:30N 51°58' E 003°43'5 9.6
2018-Jun-16 09:00N 51°57' E 003°36'4 7.7
2018-Jun-16 08:30N 51°54' E 003°32'0 0.7
2018-Jun-16 07:49N 51°54' E 003°31'0 0.0
2018-Jun-16 07:19N 51°54' E 003°31'0 0.0
2018-Jun-16 06:55N 51°54' E 003°31'0 0.0
2018-Jun-16 06:28N 51°54' E 003°31'0 0.1
2018-Jun-16 05:55N 51°54' E 003°31'0 0.0
2018-Jun-16 05:25N 51°54' E 003°31'0 0.0
2018-Jun-16 04:55N 51°54' E 003°31'0 0.0
2018-Jun-16 04:28N 51°54' E 003°31'0 0.0
2018-Jun-16 03:58N 51°54' E 003°31'0 0.0
2018-Jun-16 03:25N 51°54' E 003°31'0 0.0
2018-Jun-16 02:55N 51°54' E 003°31'0 0.0
2018-Jun-16 02:28N 51°54' E 003°31'0 0.0
2018-Jun-16 01:55N 51°54' E 003°31'0 0.1
2018-Jun-16 01:25N 51°54' E 003°31'0 0.6
2018-Jun-16 00:58N 51°54' E 003°31'0 0.1
2018-Jun-16 00:28N 51°54' E 003°31'0 0.1
2018-Jun-15 23:58N 51°54' E 003°31'0 0.0
2018-Jun-15 23:28N 51°54' E 003°31'0 0.0
2018-Jun-15 22:55N 51°54' E 003°31'0 0.0
2018-Jun-15 22:28N 51°54' E 003°31'0 0.0
2018-Jun-15 21:58N 51°54' E 003°31'0 0.0
2018-Jun-15 21:28N 51°54' E 003°31'0 0.0
2018-Jun-15 20:58N 51°54' E 003°31'0 0.1
2018-Jun-15 20:28N 51°54' E 003°31'0 0.1
2018-Jun-15 19:58N 51°54' E 003°31'0 0.0
2018-Jun-15 19:28N 51°54' E 003°31'0 0.1
2018-Jun-15 18:58N 51°54' E 003°31'0 0.2
2018-Jun-15 18:25N 51°54' E 003°31'0 0.1
2018-Jun-15 17:58N 51°54' E 003°31'0 0.1
2018-Jun-15 17:28N 51°54' E 003°31'0 0.1
2018-Jun-15 16:58N 51°54' E 003°31'0 0.0
2018-Jun-15 16:28N 51°54' E 003°31'0 0.0
2018-Jun-15 15:58N 51°54' E 003°31'0 0.0
2018-Jun-15 15:28N 51°54' E 003°31'0 0.0
2018-Jun-15 14:58N 51°54' E 003°31'0 0.0
2018-Jun-15 14:25N 51°54' E 003°31'0 0.0
2018-Jun-15 13:55N 51°54' E 003°31'0 0.1
2018-Jun-15 13:22N 51°54' E 003°31'0 0.2
2018-Jun-15 12:58N 51°54' E 003°31'0 0.3
2018-Jun-15 12:25N 51°54' E 003°31'0 0.1
2018-Jun-15 11:58N 51°54' E 003°31'0 0.1
2018-Jun-15 11:31N 51°54' E 003°31'0 0.0
2018-Jun-15 11:00N 51°54' E 003°31'0 0.0
2018-Jun-15 10:21N 51°54' E 003°31'0 0.0
2018-Jun-15 10:00N 51°54' E 003°31'0 0.0
2018-Jun-15 09:03N 51°54' E 003°31'0 0.1
2018-Jun-15 09:00N 51°54' E 003°31'0 0.0
2018-Jun-15 08:24N 51°54' E 003°31'0 0.0
2018-Jun-15 08:00N 51°54' E 003°31'0 0.0
2018-Jun-15 07:27N 51°54' E 003°31'0 0.3
2018-Jun-15 06:51N 51°54' E 003°31'0 0.1
2018-Jun-15 05:51N 51°54' E 003°31'0 0.1
2018-Jun-15 05:24N 51°54' E 003°31'0 0.0
2018-Jun-15 04:57N 51°54' E 003°31'0 0.0
2018-Jun-15 04:24N 51°54' E 003°31'0 0.1
2018-Jun-15 03:51N 51°54' E 003°31'0 0.0
2018-Jun-15 03:27N 51°54' E 003°31'0 0.0
2018-Jun-15 03:00N 51°54' E 003°31'0 0.0
2018-Jun-15 02:30N 51°54' E 003°31'0 0.1
2018-Jun-15 01:57N 51°54' E 003°31'0 0.0
2018-Jun-15 01:27N 51°54' E 003°31'0 0.1
2018-Jun-15 00:21N 51°54' E 003°31'0 0.3
2018-Jun-15 00:00N 51°54' E 003°31'0 0.2
2018-Jun-14 23:21N 51°54' E 003°31'0 0.1
2018-Jun-14 22:57N 51°54' E 003°31'0 0.0
2018-Jun-14 22:30N 51°54' E 003°31'0 0.0
2018-Jun-14 22:00N 51°54' E 003°31'0 0.0
2018-Jun-14 21:15N 51°54' E 003°31'0 0.0
2018-Jun-14 21:00N 51°54' E 003°31'0 0.0
2018-Jun-14 20:27N 51°54' E 003°31'0 0.3
2018-Jun-14 19:54N 51°54' E 003°31'0 0.4
2018-Jun-14 19:30N 51°54' E 003°31'0 0.2
2018-Jun-14 18:42N 51°54' E 003°31'0 0.6
2018-Jun-14 18:30N 51°54' E 003°31'2 3.8
2018-Jun-14 18:00N 51°55' E 003°29'713.4
2018-Jun-14 17:30N 51°54' E 003°18'815.1
2018-Jun-14 17:00N 51°53' E 003°06'815.2
2018-Jun-14 16:30N 51°51' E 002°54'814.6
2018-Jun-14 15:56N 51°51' E 002°41'913.8
2018-Jun-14 15:18N 51°55' E 002°27'815.5
2018-Jun-14 14:48N 51°54' E 002°15'516.2
2018-Jun-14 14:30N 51°53' E 002°08'917.8
2018-Jun-14 14:00N 51°49' E 001°55'713.9
2018-Jun-14 13:30N 51°50' E 001°44'510.9
2018-Jun-14 13:00N 51°51' E 001°35'1019.8
2018-Jun-14 12:31N 51°42' E 001°27'1122.2
2018-Jun-14 12:01N 51°35' E 001°14'1019.9
2018-Jun-14 11:31N 51°30' E 001°00'918.3
2018-Jun-14 11:01N 51°29' E 000°46'815.7
2018-Jun-14 10:30N 51°30' E 000°33'2 3.8
2018-Jun-14 10:01N 51°30' E 000°30'0 0.0
2018-Jun-14 09:30N 51°30' E 000°30'0 0.0
2018-Jun-14 09:01N 51°30' E 000°30'0 0.0
2018-Jun-14 08:30N 51°30' E 000°30'0 0.0
2018-Jun-14 08:00N 51°30' E 000°30'0 0.0
2018-Jun-14 07:31N 51°30' E 000°30'0 0.0
2018-Jun-14 07:01N 51°30' E 000°30'0 0.0
2018-Jun-14 06:31N 51°30' E 000°30'0 0.0
2018-Jun-14 06:00N 51°30' E 000°30'0 0.1
2018-Jun-14 05:30N 51°30' E 000°30'0 0.0
2018-Jun-14 05:01N 51°30' E 000°30'0 0.0
2018-Jun-14 04:31N 51°30' E 000°30'0 0.0
2018-Jun-14 04:00N 51°30' E 000°30'0 0.0
2018-Jun-14 03:31N 51°30' E 000°30'0 0.1
2018-Jun-14 03:01N 51°30' E 000°30'0 0.1
2018-Jun-14 02:31N 51°30' E 000°30'0 0.2
2018-Jun-14 02:01N 51°30' E 000°30'0 0.0
2018-Jun-14 01:30N 51°30' E 000°30'0 0.0
2018-Jun-14 01:00N 51°30' E 000°30'0 0.1
2018-Jun-14 00:30N 51°30' E 000°30'0 0.0
2018-Jun-14 00:01N 51°30' E 000°30'0 0.0
2018-Jun-13 23:31N 51°30' E 000°30'0 0.0
2018-Jun-13 23:01N 51°30' E 000°30'0 0.0
2018-Jun-13 22:31N 51°30' E 000°30'0 0.1
2018-Jun-13 22:00N 51°30' E 000°30'2 4.2
2018-Jun-13 21:31N 51°30' E 000°33'713.6
2018-Jun-13 21:00N 51°30' E 000°44'816.6
2018-Jun-13 20:31N 51°29' E 000°58'917.0
2018-Jun-13 20:00N 51°33' E 001°10'816.8
2018-Jun-13 19:30N 51°38' E 001°21'917.4
2018-Jun-13 19:00N 51°45' E 001°30'815.7
2018-Jun-13 18:31N 51°51' E 001°37'3 6.2
2018-Jun-13 18:00N 51°51' E 001°42'3 5.7
2018-Jun-13 17:30N 51°51' E 001°46'3 6.7
2018-Jun-13 17:00N 51°49' E 001°51'1 1.8
2018-Jun-13 16:30N 51°48' E 001°50'1 2.1
2018-Jun-13 16:00N 51°47' E 001°50'1 2.2
2018-Jun-13 15:30N 51°46' E 001°49'1 2.7
2018-Jun-13 15:00N 51°44' E 001°50'3 5.5
2018-Jun-13 14:30N 51°42' E 001°49'4 8.2
2018-Jun-13 14:00N 51°38' E 001°50'4 8.1
2018-Jun-13 13:30N 51°34' E 001°52'4 7.6
2018-Jun-13 13:00N 51°30' E 001°55'511.0
2018-Jun-13 12:30N 51°26' E 002°01'714.0
2018-Jun-13 12:01N 51°22' E 002°09'5 9.3
2018-Jun-13 11:30N 51°17' E 002°07'510.4
2018-Jun-13 11:00N 51°13' E 002°02'510.1
2018-Jun-13 10:31N 51°10' E 001°55'510.6
2018-Jun-13 10:00N 51°07' E 001°48'510.4
2018-Jun-13 09:31N 51°03' E 001°43'5 9.5
2018-Jun-13 09:00N 50°60' E 001°38'713.0
2018-Jun-13 08:30N 50°55' E 001°30'713.5
2018-Jun-13 08:00N 50°49' E 001°26'813.1
2018-Jun-13 07:24N 50°42' E 001°21'613.7
2018-Jun-13 07:00N 50°38' E 001°14'1313.6
2018-Jun-13 06:02N 50°30' E 000°58'013.0
2018-Jun-13 06:00N 50°30' E 000°58'713.3
2018-Jun-13 05:28N 50°27' E 000°47'1713.1
2018-Jun-13 04:09N 50°23' E 000°21'414.2
2018-Jun-13 03:53N 50°22' E 000°15'1613.2
2018-Jun-13 02:39N 50°19' W 000°09'212.6
2018-Jun-13 02:30N 50°18' W 000°12'712.3
2018-Jun-13 01:58N 50°17' W 000°23'612.0
2018-Jun-13 01:30N 50°16' W 000°31'811.8
2018-Jun-13 00:51N 50°14' W 000°43'511.7
2018-Jun-13 00:28N 50°13' W 000°50'  

Dump ship's entire track history